Time;durP1;ratioP1;P1;durP2;ratioP2;P2;SDS_P1;SDS_P2;PMS_P1;PMS_P2;Temp;Humidity;BMP_temperature;BMP_pressure;BME280_temperature;BME280_humidity;BME280_pressure;Samples;Min_cycle;Max_cycle;Signal;HPM_P1;HPM_P2
2021/06/21 00:00:27;;;;;;;7.47;3.28;;;;;;;;;;5055969;28;20062;-62
2021/06/21 00:02:52;;;;;;;5.38;2.80;;;;;;;;;;5052486;28;20042;-62
2021/06/21 00:05:18;;;;;;;5.80;3.00;;;;;;;;;;5053838;28;20096;-62
2021/06/21 00:07:44;;;;;;;7.00;2.95;;;;;;;;;;5062792;28;20497;-61
2021/06/21 00:10:10;;;;;;;7.50;2.80;;;;;;;;;;5054593;28;20395;-62
2021/06/21 00:12:38;;;;;;;5.43;2.72;;;;;;;;;;5072097;28;20089;-61
2021/06/21 00:15:07;;;;;;;9.45;3.30;;;;;;;;;;5039348;28;20479;-62
2021/06/21 00:17:32;;;;;;;9.70;2.70;;;;;;;;;;5038097;28;20050;-61
2021/06/21 00:19:57;;;;;;;8.73;3.10;;;;;;;;;;5059151;28;20036;-63
2021/06/21 00:22:23;;;;;;;4.10;2.67;;;;;;;;;;5056935;28;20080;-63
2021/06/21 00:24:48;;;;;;;13.95;3.00;;;;;;;;;;5054784;28;20035;-62
2021/06/21 00:27:24;;;;;;;9.27;3.38;;;;;;;;;;5054768;28;20107;-63
2021/06/21 00:29:52;;;;;;;8.90;3.00;;;;;;;;;;5055731;28;20024;-62
2021/06/21 00:32:18;;;;;;;5.40;3.08;;;;;;;;;;5044911;28;22866;-62
2021/06/21 00:34:46;;;;;;;9.77;2.70;;;;;;;;;;5041677;28;20099;-62
2021/06/21 00:37:14;;;;;;;6.97;3.15;;;;;;;;;;5040840;28;20044;-63
2021/06/21 00:39:41;;;;;;;5.25;3.30;;;;;;;;;;5055385;28;20043;-63
2021/06/21 00:42:09;;;;;;;9.82;2.55;;;;;;;;;;5054731;28;21353;-61
2021/06/21 00:44:38;;;;;;;5.22;2.80;;;;;;;;;;5055102;28;20044;-62
2021/06/21 00:47:13;;;;;;;8.95;2.05;;;;;;;;;;5056707;28;20032;-63
2021/06/21 00:49:38;;;;;;;4.97;2.50;;;;;;;;;;5042273;28;20808;-62
2021/06/21 00:52:04;;;;;;;5.90;2.70;;;;;;;;;;5040409;28;20047;-63
2021/06/21 00:54:29;;;;;;;4.03;2.38;;;;;;;;;;5022726;28;20036;-62
2021/06/21 00:56:55;;;;;;;9.75;2.92;;;;;;;;;;5056517;28;20044;-61
2021/06/21 00:59:21;;;;;;;4.72;2.28;;;;;;;;;;5055920;28;21255;-62
2021/06/21 01:01:51;;;;;;;5.50;2.65;;;;;;;;;;5067920;28;20092;-63
2021/06/21 01:04:17;;;;;;;3.97;2.30;;;;;;;;;;5056734;28;20028;-62
2021/06/21 01:06:43;;;;;;;9.52;3.40;;;;;;;;;;5055152;28;20067;-62
2021/06/21 01:09:09;;;;;;;5.43;2.92;;;;;;;;;;5056320;28;20114;-62
2021/06/21 01:11:55;;;;;;;7.45;3.00;;;;;;;;;;5055815;28;20039;-63
2021/06/21 01:14:29;;;;;;;7.15;2.53;;;;;;;;;;5055385;28;21270;-63
2021/06/21 01:16:58;;;;;;;5.10;2.90;;;;;;;;;;5057167;28;20105;-63
2021/06/21 01:19:45;;;;;;;6.60;2.35;;;;;;;;;;5057767;28;20119;-62
2021/06/21 01:22:19;;;;;;;6.28;2.30;;;;;;;;;;5062937;28;20032;-63
2021/06/21 01:24:53;;;;;;;3.47;1.75;;;;;;;;;;5073956;28;20037;-64
2021/06/21 01:27:18;;;;;;;6.93;2.35;;;;;;;;;;5046363;28;20075;-63
2021/06/21 01:29:55;;;;;;;6.35;2.22;;;;;;;;;;5056054;28;20107;-64
2021/06/21 01:32:36;;;;;;;6.32;2.45;;;;;;;;;;5053693;28;21048;-62
2021/06/21 01:35:02;;;;;;;3.53;2.13;;;;;;;;;;5057141;28;20041;-62
2021/06/21 01:37:28;;;;;;;6.45;2.22;;;;;;;;;;5057613;28;20081;-62
2021/06/21 01:39:56;;;;;;;4.10;1.90;;;;;;;;;;5055916;28;20040;-62
2021/06/21 01:42:22;;;;;;;4.40;2.55;;;;;;;;;;5041302;28;20036;-62
2021/06/21 01:44:55;;;;;;;4.28;2.38;;;;;;;;;;5058610;28;20028;-64
2021/06/21 01:47:22;;;;;;;4.55;2.33;;;;;;;;;;5057805;28;20043;-64
2021/06/21 01:49:51;;;;;;;5.13;2.83;;;;;;;;;;5059024;28;20175;-62
2021/06/21 01:55:26;;;;;;;7.57;2.38;;;;;;;;;;5059698;28;20081;-61
2021/06/21 01:57:54;;;;;;;6.93;2.55;;;;;;;;;;5055942;28;20029;-62
2021/06/21 02:00:19;;;;;;;5.60;2.50;;;;;;;;;;5062924;28;20032;-63
2021/06/21 02:02:45;;;;;;;8.00;3.20;;;;;;;;;;5058684;28;20040;-63
2021/06/21 02:05:15;;;;;;;11.52;3.80;;;;;;;;;;5059285;28;20032;-62
2021/06/21 02:07:43;;;;;;;5.30;3.20;;;;;;;;;;5058701;28;20669;-62
2021/06/21 02:10:11;;;;;;;16.33;3.63;;;;;;;;;;5062558;28;20063;-63
2021/06/21 02:12:37;;;;;;;6.40;3.22;;;;;;;;;;5057218;28;20032;-62
2021/06/21 02:15:06;;;;;;;14.60;3.05;;;;;;;;;;5057760;28;20115;-63
2021/06/21 02:17:35;;;;;;;9.52;3.50;;;;;;;;;;5057120;28;20048;-61
2021/06/21 02:20:01;;;;;;;6.80;2.65;;;;;;;;;;5057701;28;20044;-62
2021/06/21 02:22:29;;;;;;;7.68;3.22;;;;;;;;;;5059397;28;20051;-62
2021/06/21 02:25:00;;;;;;;7.40;2.88;;;;;;;;;;5073752;28;20116;-63
2021/06/21 02:27:28;;;;;;;3.22;2.70;;;;;;;;;;5055966;28;20159;-62
2021/06/21 02:29:56;;;;;;;7.53;2.75;;;;;;;;;;5058521;28;20111;-62
2021/06/21 02:32:24;;;;;;;7.60;2.03;;;;;;;;;;5057498;28;20372;-62
2021/06/21 02:34:52;;;;;;;4.50;2.50;;;;;;;;;;5046452;28;20055;-63
2021/06/21 02:37:18;;;;;;;5.30;2.35;;;;;;;;;;5056249;28;20051;-63
2021/06/21 02:39:46;;;;;;;5.10;2.83;;;;;;;;;;5047512;28;20060;-61
2021/06/21 02:42:11;;;;;;;9.38;2.30;;;;;;;;;;5057534;28;20040;-63
2021/06/21 02:44:37;;;;;;;17.40;2.83;;;;;;;;;;5072835;28;20035;-62
2021/06/21 02:47:08;;;;;;;7.15;3.00;;;;;;;;;;5056204;28;20851;-63
2021/06/21 02:49:38;;;;;;;4.32;2.50;;;;;;;;;;5065114;28;20052;-62
2021/06/21 02:52:16;;;;;;;9.32;2.67;;;;;;;;;;5057678;28;20032;-63
2021/06/21 02:54:50;;;;;;;6.35;2.25;;;;;;;;;;5057181;28;20032;-63
2021/06/21 02:57:33;;;;;;;3.42;2.05;;;;;;;;;;5038655;28;20150;-63
2021/06/21 03:00:01;;;;;;;7.18;2.72;;;;;;;;;;5055512;28;20550;-63
2021/06/21 03:02:31;;;;;;;3.70;2.05;;;;;;;;;;5061250;28;20055;-62
2021/06/21 03:05:01;;;;;;;9.30;2.70;;;;;;;;;;5057390;28;20054;-62
2021/06/21 03:07:27;;;;;;;10.95;3.00;;;;;;;;;;5056617;28;20109;-63
2021/06/21 03:09:54;;;;;;;8.98;2.83;;;;;;;;;;5057611;28;20078;-62
2021/06/21 03:12:29;;;;;;;5.85;2.17;;;;;;;;;;5056566;28;20559;-61
2021/06/21 03:14:54;;;;;;;6.88;2.28;;;;;;;;;;5071995;28;20040;-62
2021/06/21 03:17:20;;;;;;;6.53;2.70;;;;;;;;;;5056579;28;20044;-61
2021/06/21 03:19:51;;;;;;;6.60;2.72;;;;;;;;;;5057797;28;21983;-63
2021/06/21 03:22:20;;;;;;;9.18;2.33;;;;;;;;;;5055877;28;20028;-63
2021/06/21 03:24:53;;;;;;;5.75;3.13;;;;;;;;;;5058535;28;20603;-62
2021/06/21 03:27:28;;;;;;;4.13;2.47;;;;;;;;;;5053884;28;20107;-63
2021/06/21 03:30:00;;;;;;;7.35;2.78;;;;;;;;;;5055326;28;20482;-61
2021/06/21 03:32:28;;;;;;;11.07;2.85;;;;;;;;;;5057110;28;20553;-60
2021/06/21 03:34:55;;;;;;;4.13;2.90;;;;;;;;;;5055524;28;20578;-62
2021/06/21 03:37:20;;;;;;;11.85;2.65;;;;;;;;;;5073213;28;20036;-60
2021/06/21 03:39:45;;;;;;;10.25;2.97;;;;;;;;;;5055062;28;20043;-62
2021/06/21 03:42:11;;;;;;;3.50;2.40;;;;;;;;;;5055597;28;20040;-61
2021/06/21 03:44:36;;;;;;;14.77;3.25;;;;;;;;;;5059900;28;20032;-61
2021/06/21 03:47:01;;;;;;;13.45;3.40;;;;;;;;;;5041907;28;20046;-62
2021/06/21 03:49:29;;;;;;;5.35;2.50;;;;;;;;;;5045738;28;20028;-60
2021/06/21 03:51:54;;;;;;;7.82;3.38;;;;;;;;;;5039923;28;20024;-61
2021/06/21 03:54:22;;;;;;;11.25;3.42;;;;;;;;;;5056692;28;20025;-61
2021/06/21 03:56:51;;;;;;;12.48;3.42;;;;;;;;;;5057311;28;21064;-61
2021/06/21 03:59:19;;;;;;;12.35;3.55;;;;;;;;;;5055742;28;20028;-61
2021/06/21 04:01:48;;;;;;;10.52;3.60;;;;;;;;;;5052921;28;20109;-61
2021/06/21 04:04:15;;;;;;;15.57;4.05;;;;;;;;;;5059273;28;20032;-61
2021/06/21 04:06:43;;;;;;;9.23;3.63;;;;;;;;;;5055245;28;20058;-60
2021/06/21 04:09:09;;;;;;;15.10;4.10;;;;;;;;;;5042226;28;20072;-61
2021/06/21 04:11:39;;;;;;;8.02;3.53;;;;;;;;;;5039127;28;20392;-62
2021/06/21 04:14:05;;;;;;;17.25;4.00;;;;;;;;;;5056166;28;20033;-59
2021/06/21 04:16:31;;;;;;;15.25;4.90;;;;;;;;;;5056115;28;20032;-62
2021/06/21 04:19:01;;;;;;;13.77;4.22;;;;;;;;;;5041653;28;20492;-63
2021/06/21 04:21:29;;;;;;;7.97;4.45;;;;;;;;;;5056780;28;20026;-61
2021/06/21 04:23:55;;;;;;;15.77;4.65;;;;;;;;;;5029929;28;21973;-62
2021/06/21 04:26:23;;;;;;;19.55;5.07;;;;;;;;;;5041046;28;20039;-64
2021/06/21 04:28:53;;;;;;;17.00;4.22;;;;;;;;;;5039610;28;20044;-62
2021/06/21 04:31:21;;;;;;;12.60;4.35;;;;;;;;;;5054802;28;20483;-62
2021/06/21 04:33:49;;;;;;;16.63;4.38;;;;;;;;;;5053818;28;20029;-61
2021/06/21 04:36:15;;;;;;;13.40;4.05;;;;;;;;;;5052462;28;20028;-60
2021/06/21 04:38:41;;;;;;;19.23;5.25;;;;;;;;;;5041841;28;20047;-60
2021/06/21 04:41:07;;;;;;;9.43;4.00;;;;;;;;;;5056304;28;20032;-61
2021/06/21 04:43:35;;;;;;;30.40;5.63;;;;;;;;;;5057600;28;20040;-60
2021/06/21 04:46:04;;;;;;;18.73;4.72;;;;;;;;;;5056254;28;20027;-59
2021/06/21 04:48:31;;;;;;;27.38;4.28;;;;;;;;;;5054632;28;22278;-60
2021/06/21 04:50:57;;;;;;;20.92;4.32;;;;;;;;;;5075477;27;20107;-59
2021/06/21 04:53:25;;;;;;;7.13;4.00;;;;;;;;;;5057605;28;20052;-58
2021/06/21 04:55:51;;;;;;;17.35;4.70;;;;;;;;;;5059321;28;20640;-59
2021/06/21 04:58:19;;;;;;;19.80;4.80;;;;;;;;;;5063062;28;20044;-59
2021/06/21 05:00:49;;;;;;;15.45;5.30;;;;;;;;;;5065033;28;20031;-58
2021/06/21 05:03:17;;;;;;;24.95;4.93;;;;;;;;;;5058041;28;20036;-58
2021/06/21 05:05:45;;;;;;;29.23;4.88;;;;;;;;;;5061194;28;20043;-58
2021/06/21 05:08:13;;;;;;;10.15;4.07;;;;;;;;;;5060747;28;20986;-58
2021/06/21 05:10:41;;;;;;;19.38;5.68;;;;;;;;;;5076994;28;20058;-58
2021/06/21 05:13:11;;;;;;;11.25;3.53;;;;;;;;;;5045751;28;20115;-58
2021/06/21 05:15:37;;;;;;;13.35;4.03;;;;;;;;;;5058890;28;20063;-59
2021/06/21 05:18:04;;;;;;;8.85;3.53;;;;;;;;;;5057523;28;20040;-58
2021/06/21 05:20:32;;;;;;;14.60;4.75;;;;;;;;;;5059552;28;20035;-58
2021/06/21 05:23:03;;;;;;;13.45;4.25;;;;;;;;;;5074862;28;20530;-59
2021/06/21 05:25:33;;;;;;;10.38;3.60;;;;;;;;;;5058302;28;20064;-58
2021/06/21 05:27:58;;;;;;;8.48;3.67;;;;;;;;;;5058649;28;20043;-58
2021/06/21 05:30:26;;;;;;;10.00;4.35;;;;;;;;;;5058177;28;20074;-58
2021/06/21 05:32:55;;;;;;;11.93;4.47;;;;;;;;;;5057090;28;20411;-58
2021/06/21 05:35:21;;;;;;;14.20;3.58;;;;;;;;;;5060134;28;20507;-58
2021/06/21 05:37:49;;;;;;;6.65;3.53;;;;;;;;;;5059372;28;20147;-59
2021/06/21 05:40:15;;;;;;;7.15;2.90;;;;;;;;;;5059777;28;20074;-59
2021/06/21 05:42:40;;;;;;;12.05;3.00;;;;;;;;;;5041985;28;20530;-59
2021/06/21 05:45:09;;;;;;;7.70;3.03;;;;;;;;;;5046060;28;20040;-58
2021/06/21 05:47:37;;;;;;;12.73;2.60;;;;;;;;;;5056611;28;20058;-58
2021/06/21 05:50:05;;;;;;;11.98;3.10;;;;;;;;;;5058381;28;20033;-58
2021/06/21 05:52:33;;;;;;;6.15;2.47;;;;;;;;;;5057579;28;20037;-58
2021/06/21 05:55:01;;;;;;;9.15;3.25;;;;;;;;;;5057977;28;20050;-59
2021/06/21 05:57:27;;;;;;;9.80;2.85;;;;;;;;;;5057788;28;20545;-59
2021/06/21 05:59:53;;;;;;;10.70;2.70;;;;;;;;;;5060353;28;20146;-60
2021/06/21 06:02:21;;;;;;;8.43;2.70;;;;;;;;;;5057538;28;20063;-58
2021/06/21 06:04:53;;;;;;;7.43;2.55;;;;;;;;;;5073284;28;20051;-59
2021/06/21 06:07:24;;;;;;;10.98;2.35;;;;;;;;;;5059375;28;20051;-59
2021/06/21 06:09:50;;;;;;;8.60;2.25;;;;;;;;;;5075887;28;20471;-58
2021/06/21 06:12:18;;;;;;;4.88;2.13;;;;;;;;;;5057889;28;20020;-58
2021/06/21 06:14:45;;;;;;;21.33;3.10;;;;;;;;;;5059739;28;20096;-59
2021/06/21 06:17:16;;;;;;;8.40;2.38;;;;;;;;;;5044035;28;20036;-59
2021/06/21 06:19:43;;;;;;;14.80;2.40;;;;;;;;;;5056526;28;20031;-61
2021/06/21 06:22:11;;;;;;;7.30;2.40;;;;;;;;;;5058774;28;20040;-59
2021/06/21 06:24:38;;;;;;;6.13;1.85;;;;;;;;;;5058458;28;20760;-59
2021/06/21 06:27:04;;;;;;;10.10;2.28;;;;;;;;;;5062120;28;20127;-59
2021/06/21 06:29:33;;;;;;;10.23;2.72;;;;;;;;;;5058516;28;20174;-59
2021/06/21 06:32:00;;;;;;;4.90;1.90;;;;;;;;;;5055823;28;20170;-59
2021/06/21 06:34:25;;;;;;;7.22;2.20;;;;;;;;;;5057441;28;20028;-58
2021/06/21 06:36:51;;;;;;;6.57;2.25;;;;;;;;;;5062215;28;20039;-58
2021/06/21 06:39:20;;;;;;;5.32;2.22;;;;;;;;;;5059654;28;20028;-59
2021/06/21 06:41:48;;;;;;;7.20;1.95;;;;;;;;;;5043971;28;20078;-59
2021/06/21 06:44:13;;;;;;;8.80;1.65;;;;;;;;;;5039839;28;20031;-58
2021/06/21 06:46:39;;;;;;;8.05;1.60;;;;;;;;;;5056273;28;20040;-58
2021/06/21 06:49:08;;;;;;;6.82;1.60;;;;;;;;;;5055257;28;20077;-58
2021/06/21 06:51:41;;;;;;;4.95;1.80;;;;;;;;;;5059486;28;20032;-58
2021/06/21 06:57:00;;;;;;;4.88;1.60;;;;;;;;;;5059507;28;20028;-59
2021/06/21 06:59:28;;;;;;;4.78;1.58;;;;;;;;;;5062768;28;20032;-58
2021/06/21 07:01:54;;;;;;;2.55;1.75;;;;;;;;;;5072350;27;21441;-60
2021/06/21 07:04:20;;;;;;;5.97;1.42;;;;;;;;;;5056776;28;20081;-60
2021/06/21 07:06:45;;;;;;;6.38;1.73;;;;;;;;;;5072146;28;20507;-58
2021/06/21 07:09:11;;;;;;;4.95;1.75;;;;;;;;;;5045516;28;20046;-59
2021/06/21 07:11:39;;;;;;;12.00;1.55;;;;;;;;;;5056553;28;20040;-60
2021/06/21 07:14:05;;;;;;;6.65;1.80;;;;;;;;;;5054562;28;20020;-59
2021/06/21 07:16:31;;;;;;;3.22;1.77;;;;;;;;;;5056011;28;21757;-60
2021/06/21 07:19:01;;;;;;;9.30;1.77;;;;;;;;;;5056524;28;20159;-60
2021/06/21 07:21:27;;;;;;;3.65;1.63;;;;;;;;;;5040153;28;20032;-59
2021/06/21 07:23:52;;;;;;;3.45;1.50;;;;;;;;;;5053884;28;20036;-59
2021/06/21 07:26:18;;;;;;;7.55;1.45;;;;;;;;;;5067296;28;20032;-60
2021/06/21 07:28:45;;;;;;;3.80;1.38;;;;;;;;;;5049290;28;20576;-62
2021/06/21 07:31:12;;;;;;;9.00;1.65;;;;;;;;;;5049358;28;20119;-60
2021/06/21 07:33:40;;;;;;;2.70;1.25;;;;;;;;;;5051800;28;20029;-60
2021/06/21 07:36:10;;;;;;;6.65;2.08;;;;;;;;;;5057729;28;21005;-60
2021/06/21 07:38:40;;;;;;;9.55;1.33;;;;;;;;;;5054481;28;20036;-60
2021/06/21 07:41:10;;;;;;;5.20;1.83;;;;;;;;;;5059741;28;20052;-62
2021/06/21 07:43:38;;;;;;;5.93;1.38;;;;;;;;;;5055296;28;20032;-59
2021/06/21 07:46:04;;;;;;;6.72;1.50;;;;;;;;;;5056616;28;20511;-59
2021/06/21 07:48:35;;;;;;;2.85;1.20;;;;;;;;;;5052485;28;20040;-59
2021/06/21 07:51:02;;;;;;;8.52;1.90;;;;;;;;;;5048481;28;20036;-59
2021/06/21 07:53:28;;;;;;;5.82;1.45;;;;;;;;;;5046215;28;20032;-59
2021/06/21 07:55:56;;;;;;;5.00;1.60;;;;;;;;;;5046488;28;20127;-60
2021/06/21 07:58:24;;;;;;;14.05;1.65;;;;;;;;;;5045516;28;20036;-60
2021/06/21 08:00:52;;;;;;;9.02;2.05;;;;;;;;;;5064289;28;20105;-60
2021/06/21 08:03:17;;;;;;;6.68;1.73;;;;;;;;;;5042071;28;20104;-59
2021/06/21 08:05:49;;;;;;;6.07;1.65;;;;;;;;;;5056910;28;20681;-59
2021/06/21 08:08:14;;;;;;;6.57;1.73;;;;;;;;;;5045191;28;20039;-59
2021/06/21 08:10:42;;;;;;;12.98;2.20;;;;;;;;;;5046708;28;20020;-59
2021/06/21 08:13:10;;;;;;;7.43;1.77;;;;;;;;;;5047005;28;20028;-59
2021/06/21 08:15:38;;;;;;;9.73;1.60;;;;;;;;;;5049960;28;20197;-60
2021/06/21 08:18:06;;;;;;;7.20;1.83;;;;;;;;;;5041670;28;20044;-58
2021/06/21 08:20:32;;;;;;;7.75;1.55;;;;;;;;;;5050004;28;20043;-59
2021/06/21 08:23:02;;;;;;;4.40;1.45;;;;;;;;;;5041839;28;20045;-58
2021/06/21 08:25:28;;;;;;;7.60;2.03;;;;;;;;;;5043605;28;20130;-59
2021/06/21 08:27:53;;;;;;;9.30;1.52;;;;;;;;;;5060473;28;20608;-60
2021/06/21 08:30:21;;;;;;;2.58;1.50;;;;;;;;;;5033703;28;21359;-60
2021/06/21 08:32:53;;;;;;;8.93;2.33;;;;;;;;;;5035024;28;20043;-59
2021/06/21 08:35:25;;;;;;;6.18;1.98;;;;;;;;;;5043063;28;20032;-57
2021/06/21 08:37:53;;;;;;;9.07;1.52;;;;;;;;;;5045136;28;20031;-58
2021/06/21 08:40:24;;;;;;;9.45;1.70;;;;;;;;;;5048604;28;20052;-58
2021/06/21 08:42:51;;;;;;;12.40;2.17;;;;;;;;;;5048895;28;20036;-59
2021/06/21 08:45:17;;;;;;;6.63;1.40;;;;;;;;;;5048435;28;20024;-59
2021/06/21 08:47:45;;;;;;;12.35;1.70;;;;;;;;;;5046768;28;20116;-59
2021/06/21 08:50:17;;;;;;;9.88;1.73;;;;;;;;;;5049390;28;20020;-59
2021/06/21 08:52:43;;;;;;;2.55;1.23;;;;;;;;;;5050584;28;20121;-59
2021/06/21 08:55:12;;;;;;;7.45;1.40;;;;;;;;;;5046899;28;20427;-58
2021/06/21 08:57:44;;;;;;;12.70;1.50;;;;;;;;;;5055882;28;20112;-59
2021/06/21 09:00:13;;;;;;;4.65;1.30;;;;;;;;;;5040244;28;20539;-59
2021/06/21 09:02:41;;;;;;;6.15;1.10;;;;;;;;;;5054913;28;20052;-58
2021/06/21 09:05:07;;;;;;;2.22;1.00;;;;;;;;;;5056709;28;20498;-58
2021/06/21 09:07:38;;;;;;;4.03;1.17;;;;;;;;;;5056402;28;20036;-58
2021/06/21 09:10:20;;;;;;;5.47;1.15;;;;;;;;;;5055417;28;20051;-59
2021/06/21 09:13:16;;;;;;;6.10;1.30;;;;;;;;;;5053343;28;20055;-58
2021/06/21 09:15:51;;;;;;;8.93;1.35;;;;;;;;;;5055218;28;21872;-59
2021/06/21 09:18:25;;;;;;;2.67;0.98;;;;;;;;;;5051389;28;20629;-58
2021/06/21 09:21:18;;;;;;;7.93;1.40;;;;;;;;;;5056598;28;20103;-58
2021/06/21 09:23:50;;;;;;;6.95;1.23;;;;;;;;;;5045627;28;20084;-58
2021/06/21 09:26:24;;;;;;;4.93;1.00;;;;;;;;;;5054160;28;20036;-59
2021/06/21 09:28:57;;;;;;;7.30;1.27;;;;;;;;;;5054160;28;20627;-59
2021/06/21 09:31:26;;;;;;;2.58;1.15;;;;;;;;;;5053623;28;20031;-58
2021/06/21 09:34:14;;;;;;;4.05;1.23;;;;;;;;;;5055983;28;20032;-58
2021/06/21 09:36:39;;;;;;;9.00;1.20;;;;;;;;;;5063454;28;20032;-59
2021/06/21 09:39:17;;;;;;;7.95;1.38;;;;;;;;;;5057314;28;20078;-59
2021/06/21 09:41:43;;;;;;;5.18;1.58;;;;;;;;;;5060059;28;20040;-58
2021/06/21 09:44:28;;;;;;;5.82;1.38;;;;;;;;;;5056272;28;20024;-58
2021/06/21 09:47:09;;;;;;;9.95;1.67;;;;;;;;;;5057993;28;20039;-59
2021/06/21 09:49:37;;;;;;;6.95;1.48;;;;;;;;;;5057749;28;20556;-59
2021/06/21 09:52:05;;;;;;;14.98;1.75;;;;;;;;;;5064589;28;20067;-58
2021/06/21 09:54:34;;;;;;;4.82;1.20;;;;;;;;;;5058226;28;20648;-58
2021/06/21 09:57:11;;;;;;;9.77;1.67;;;;;;;;;;5072865;27;20024;-59
2021/06/21 09:59:45;;;;;;;17.90;1.65;;;;;;;;;;5059113;28;20032;-59
2021/06/21 10:02:14;;;;;;;9.83;1.63;;;;;;;;;;5057973;28;20028;-58
2021/06/21 10:04:41;;;;;;;8.52;1.58;;;;;;;;;;5063190;28;20470;-59
2021/06/21 10:07:25;;;;;;;2.88;1.20;;;;;;;;;;5057551;28;20098;-59
2021/06/21 10:09:52;;;;;;;8.07;1.25;;;;;;;;;;5055049;28;20631;-59
2021/06/21 10:12:22;;;;;;;5.75;1.10;;;;;;;;;;5058470;28;21371;-60
2021/06/21 10:14:48;;;;;;;12.27;1.50;;;;;;;;;;5057955;28;20024;-60
2021/06/21 10:17:16;;;;;;;4.93;0.85;;;;;;;;;;5037053;28;20040;-59
2021/06/21 10:19:43;;;;;;;5.28;1.10;;;;;;;;;;5055654;28;20043;-60
2021/06/21 10:22:09;;;;;;;5.53;1.00;;;;;;;;;;5042729;28;20046;-59
2021/06/21 10:24:42;;;;;;;4.20;1.23;;;;;;;;;;5059399;28;20033;-59
2021/06/21 10:27:13;;;;;;;1.40;0.60;;;;;;;;;;5058522;28;20032;-60
2021/06/21 10:29:41;;;;;;;4.47;1.40;;;;;;;;;;5070025;28;20036;-59
2021/06/21 10:32:12;;;;;;;6.97;0.90;;;;;;;;;;5055116;28;20028;-59
2021/06/21 10:34:40;;;;;;;1.70;0.82;;;;;;;;;;5068581;28;20036;-59
2021/06/21 10:37:17;;;;;;;7.88;1.25;;;;;;;;;;5056772;28;20066;-58
2021/06/21 10:39:51;;;;;;;9.33;0.90;;;;;;;;;;5058410;28;20071;-58
2021/06/21 10:42:24;;;;;;;0.82;0.75;;;;;;;;;;5056460;28;20039;-58
2021/06/21 10:44:54;;;;;;;1.73;0.63;;;;;;;;;;5057586;28;20119;-59
2021/06/21 10:47:33;;;;;;;1.95;0.98;;;;;;;;;;5054012;28;20096;-59
2021/06/21 10:50:19;;;;;;;3.15;1.15;;;;;;;;;;5055850;28;20089;-59
2021/06/21 10:52:53;;;;;;;2.55;1.20;;;;;;;;;;5074267;27;20025;-60
2021/06/21 10:55:33;;;;;;;6.07;1.60;;;;;;;;;;5059365;28;20041;-59
2021/06/21 10:58:17;;;;;;;4.68;1.20;;;;;;;;;;5055608;28;20047;-59
2021/06/21 11:00:53;;;;;;;8.97;1.40;;;;;;;;;;5055764;28;20094;-58
2021/06/21 11:05:51;;;;;;;8.25;1.70;;;;;;;;;;5054452;28;20049;-59
2021/06/21 11:08:20;;;;;;;2.47;0.82;;;;;;;;;;5055944;28;20029;-59
2021/06/21 11:10:52;;;;;;;2.88;1.05;;;;;;;;;;5055998;28;20094;-59
2021/06/21 11:13:31;;;;;;;1.63;1.15;;;;;;;;;;5056853;28;20119;-59
2021/06/21 11:16:13;;;;;;;9.02;1.25;;;;;;;;;;5057982;28;20186;-59
2021/06/21 11:18:38;;;;;;;6.30;1.17;;;;;;;;;;5070005;28;20056;-58
2021/06/21 11:21:16;;;;;;;3.95;1.33;;;;;;;;;;5057489;28;20044;-59
2021/06/21 11:23:48;;;;;;;4.88;0.80;;;;;;;;;;5058102;28;20068;-58
2021/06/21 11:26:14;;;;;;;7.57;1.00;;;;;;;;;;5041050;28;20041;-58
2021/06/21 11:28:40;;;;;;;2.38;1.38;;;;;;;;;;5056472;28;20054;-58
2021/06/21 11:31:17;;;;;;;4.15;1.00;;;;;;;;;;5072595;28;20028;-59
2021/06/21 11:33:48;;;;;;;7.78;1.35;;;;;;;;;;5057375;28;20024;-59
2021/06/21 11:36:42;;;;;;;4.15;1.10;;;;;;;;;;5057145;28;20094;-59
2021/06/21 11:39:18;;;;;;;13.85;1.25;;;;;;;;;;5053300;28;20462;-58
2021/06/21 11:41:59;;;;;;;4.18;1.10;;;;;;;;;;5055106;28;20028;-58
2021/06/21 11:44:36;;;;;;;5.25;1.27;;;;;;;;;;5056414;28;20044;-59
2021/06/21 11:47:02;;;;;;;2.35;1.27;;;;;;;;;;5056127;28;20071;-59
2021/06/21 11:49:27;;;;;;;4.18;1.08;;;;;;;;;;5067669;28;20111;-59
2021/06/21 11:51:58;;;;;;;7.72;1.40;;;;;;;;;;5054452;28;20028;-57
2021/06/21 11:54:27;;;;;;;5.25;1.23;;;;;;;;;;5056368;28;20058;-59
2021/06/21 11:56:56;;;;;;;2.80;1.17;;;;;;;;;;5042283;28;20919;-59
2021/06/21 11:59:34;;;;;;;1.33;1.00;;;;;;;;;;5055661;28;20024;-58
2021/06/21 12:02:22;;;;;;;6.75;1.42;;;;;;;;;;5055178;28;20036;-58
2021/06/21 12:04:53;;;;;;;3.90;1.10;;;;;;;;;;5054933;28;20115;-59
2021/06/21 12:07:29;;;;;;;5.07;1.27;;;;;;;;;;5055800;28;20512;-59
2021/06/21 12:09:56;;;;;;;5.35;1.20;;;;;;;;;;5071703;27;20498;-58
2021/06/21 12:12:29;;;;;;;4.13;1.15;;;;;;;;;;5055949;28;21433;-58
2021/06/21 12:14:54;;;;;;;4.03;1.10;;;;;;;;;;5046365;28;20089;-57
2021/06/21 12:17:22;;;;;;;1.58;1.20;;;;;;;;;;5070395;28;20114;-59
2021/06/21 12:20:03;;;;;;;2.20;1.08;;;;;;;;;;5057135;28;20102;-58
2021/06/21 12:22:28;;;;;;;2.20;1.23;;;;;;;;;;5054494;28;20045;-58
2021/06/21 12:24:57;;;;;;;2.15;0.95;;;;;;;;;;5056251;28;20128;-58
2021/06/21 12:27:26;;;;;;;4.43;1.02;;;;;;;;;;5056453;28;20043;-59
2021/06/21 12:29:52;;;;;;;3.95;1.52;;;;;;;;;;5055988;28;20024;-59
2021/06/21 12:32:29;;;;;;;3.85;1.40;;;;;;;;;;5054198;28;21196;-58
2021/06/21 12:34:57;;;;;;;8.18;1.40;;;;;;;;;;5063035;28;20028;-58
2021/06/21 12:37:29;;;;;;;3.47;1.13;;;;;;;;;;5054791;28;20047;-58
2021/06/21 12:40:14;;;;;;;3.65;1.70;;;;;;;;;;5057674;28;20032;-59
2021/06/21 12:42:49;;;;;;;5.97;1.50;;;;;;;;;;5070444;28;20039;-59
2021/06/21 12:45:15;;;;;;;5.93;1.70;;;;;;;;;;5036029;28;20036;-59
2021/06/21 12:47:47;;;;;;;9.95;1.45;;;;;;;;;;5070910;28;20663;-58
2021/06/21 12:50:14;;;;;;;8.15;1.23;;;;;;;;;;5055946;28;20032;-58
2021/06/21 12:52:44;;;;;;;8.95;1.88;;;;;;;;;;5070646;28;20050;-58
2021/06/21 12:55:16;;;;;;;5.57;1.50;;;;;;;;;;5054691;28;20031;-59
2021/06/21 12:57:46;;;;;;;3.03;1.55;;;;;;;;;;5071558;28;20695;-60
2021/06/21 13:00:12;;;;;;;9.80;2.13;;;;;;;;;;5054878;28;20040;-59
2021/06/21 13:02:40;;;;;;;9.80;2.13;;;;;;;;;;5055155;28;20036;-58
2021/06/21 13:05:10;;;;;;;4.82;1.88;;;;;;;;;;5060575;28;20675;-58
2021/06/21 13:07:39;;;;;;;5.35;1.55;;;;;;;;;;5052509;28;20439;-60
2021/06/21 13:10:10;;;;;;;11.20;1.70;;;;;;;;;;5041389;28;20021;-60
2021/06/21 13:12:40;;;;;;;7.82;1.63;;;;;;;;;;5056001;28;20017;-58
2021/06/21 13:15:10;;;;;;;4.95;1.52;;;;;;;;;;5060097;28;20048;-59
2021/06/21 13:17:39;;;;;;;5.90;1.95;;;;;;;;;;5057906;28;20040;-59
2021/06/21 13:20:06;;;;;;;10.45;2.60;;;;;;;;;;5058632;28;20054;-59
2021/06/21 13:22:36;;;;;;;4.88;1.98;;;;;;;;;;5058519;28;20089;-59
2021/06/21 13:25:14;;;;;;;7.18;3.33;;;;;;;;;;5058843;28;20060;-59
2021/06/21 13:27:48;;;;;;;10.32;2.88;;;;;;;;;;5058925;28;20130;-57
2021/06/21 13:30:27;;;;;;;6.72;2.38;;;;;;;;;;5056869;28;20716;-59
2021/06/21 13:32:56;;;;;;;8.75;2.45;;;;;;;;;;5056931;28;20024;-59
2021/06/21 13:35:28;;;;;;;12.88;3.28;;;;;;;;;;5058609;28;20051;-59
2021/06/21 13:37:57;;;;;;;13.35;3.00;;;;;;;;;;5055721;28;20088;-58
2021/06/21 13:40:27;;;;;;;8.70;2.97;;;;;;;;;;5044410;28;20033;-58
2021/06/21 13:42:56;;;;;;;11.73;2.63;;;;;;;;;;5058392;28;20676;-59
2021/06/21 13:45:30;;;;;;;14.68;2.85;;;;;;;;;;5056218;28;20044;-59
2021/06/21 13:48:18;;;;;;;9.10;3.03;;;;;;;;;;5040580;28;20039;-59
2021/06/21 13:50:48;;;;;;;10.00;2.08;;;;;;;;;;5060630;28;20037;-59
2021/06/21 13:53:29;;;;;;;12.45;2.35;;;;;;;;;;5058036;28;20063;-59
2021/06/21 13:55:58;;;;;;;6.40;2.28;;;;;;;;;;5057318;28;20028;-58
2021/06/21 13:58:29;;;;;;;9.00;2.80;;;;;;;;;;5056532;28;20028;-59
2021/06/21 14:01:09;;;;;;;12.05;2.15;;;;;;;;;;5058333;28;20118;-59
2021/06/21 14:03:38;;;;;;;9.65;2.67;;;;;;;;;;5055062;28;20054;-59
2021/06/21 14:06:05;;;;;;;7.20;2.03;;;;;;;;;;5057544;28;20135;-60
2021/06/21 14:08:34;;;;;;;5.95;2.40;;;;;;;;;;5058999;28;20578;-59
2021/06/21 14:11:10;;;;;;;8.20;2.50;;;;;;;;;;5059211;28;20089;-59
2021/06/21 14:13:43;;;;;;;13.23;3.30;;;;;;;;;;5054687;28;20055;-59
2021/06/21 14:16:12;;;;;;;9.88;2.80;;;;;;;;;;5055963;28;20060;-59
2021/06/21 14:18:41;;;;;;;8.80;3.13;;;;;;;;;;5054263;28;20064;-59
2021/06/21 14:21:11;;;;;;;12.25;2.92;;;;;;;;;;5046878;28;20068;-58
2021/06/21 14:23:39;;;;;;;11.30;2.75;;;;;;;;;;5057129;28;20143;-59
2021/06/21 14:26:05;;;;;;;13.50;3.13;;;;;;;;;;5057534;28;20038;-59
2021/06/21 14:28:33;;;;;;;10.27;2.92;;;;;;;;;;5056891;28;20036;-59
2021/06/21 14:30:59;;;;;;;14.02;3.17;;;;;;;;;;5058586;28;20081;-60
2021/06/21 14:33:27;;;;;;;12.40;2.30;;;;;;;;;;5056414;28;20409;-60
2021/06/21 14:35:55;;;;;;;9.85;2.45;;;;;;;;;;5055239;28;20032;-60
2021/06/21 14:38:20;;;;;;;8.15;2.55;;;;;;;;;;5054218;28;20163;-59
2021/06/21 14:40:47;;;;;;;10.52;2.15;;;;;;;;;;5054469;28;20085;-59
2021/06/21 14:43:18;;;;;;;8.18;1.88;;;;;;;;;;5057436;28;20131;-59
2021/06/21 14:45:44;;;;;;;8.75;2.05;;;;;;;;;;5055728;28;20048;-59
2021/06/21 14:48:15;;;;;;;5.13;2.00;;;;;;;;;;5054973;28;20054;-59
2021/06/21 14:50:54;;;;;;;6.88;1.95;;;;;;;;;;5066343;28;20032;-59
2021/06/21 14:53:21;;;;;;;8.13;2.03;;;;;;;;;;5056219;28;20036;-60
2021/06/21 14:55:47;;;;;;;6.70;2.10;;;;;;;;;;5057663;28;20048;-61
2021/06/21 14:58:19;;;;;;;8.35;2.85;;;;;;;;;;5047379;28;20036;-60
2021/06/21 15:00:45;;;;;;;6.93;2.75;;;;;;;;;;5056568;28;20517;-59
2021/06/21 15:03:10;;;;;;;12.35;3.13;;;;;;;;;;5028920;28;20036;-59